Time;durP1;ratioP1;P1;durP2;ratioP2;P2;SDS_P1;SDS_P2;PMS_P1;PMS_P2;Temp;Humidity;BMP_temperature;BMP_pressure;BME280_temperature;BME280_humidity;BME280_pressure;Samples;Min_cycle;Max_cycle;Signal;HPM_P1;HPM_P2
2023/01/31 00:00:13;;;;;;;23.10;3.45;;;;;;;;;;4992251;28;20053;-75
2023/01/31 00:02:39;;;;;;;19.52;5.07;;;;;;;;;;4993485;28;20036;-74
2023/01/31 00:05:05;;;;;;;14.32;3.25;;;;;;;;;;4993681;28;20110;-74
2023/01/31 00:07:31;;;;;;;16.42;3.42;;;;;;;;;;4992403;28;20034;-75
2023/01/31 00:09:57;;;;;;;20.02;4.80;;;;;;;;;;4993251;28;20032;-75
2023/01/31 00:12:23;;;;;;;17.88;4.45;;;;;;;;;;4991572;28;20022;-73
2023/01/31 00:14:49;;;;;;;18.00;4.03;;;;;;;;;;4993349;28;20409;-74
2023/01/31 00:17:15;;;;;;;13.98;4.35;;;;;;;;;;4992435;28;20069;-74
2023/01/31 00:19:41;;;;;;;18.70;3.47;;;;;;;;;;4992919;28;20018;-74
2023/01/31 00:22:07;;;;;;;26.55;4.53;;;;;;;;;;4992972;28;20023;-75
2023/01/31 00:24:33;;;;;;;18.13;3.35;;;;;;;;;;4992704;28;20022;-75
2023/01/31 00:26:59;;;;;;;17.35;4.97;;;;;;;;;;4992213;28;20034;-71
2023/01/31 00:29:26;;;;;;;11.25;3.50;;;;;;;;;;4994679;23;20054;-73
2023/01/31 00:31:55;;;;;;;13.82;3.08;;;;;;;;;;4972510;28;20031;-72
2023/01/31 00:34:26;;;;;;;22.25;4.22;;;;;;;;;;4971909;28;20027;-74
2023/01/31 00:36:53;;;;;;;23.10;3.90;;;;;;;;;;4973932;28;20038;-72
2023/01/31 00:39:21;;;;;;;18.10;4.15;;;;;;;;;;4971351;28;20031;-73
2023/01/31 00:41:58;;;;;;;23.17;4.88;;;;;;;;;;4972056;28;20027;-74
2023/01/31 00:44:24;;;;;;;15.35;3.67;;;;;;;;;;4971418;28;20030;-72
2023/01/31 00:46:56;;;;;;;13.95;4.13;;;;;;;;;;4973349;28;20053;-73
2023/01/31 00:49:22;;;;;;;13.30;2.50;;;;;;;;;;4970895;28;20027;-72
2023/01/31 00:51:48;;;;;;;14.80;2.75;;;;;;;;;;4973340;28;20401;-73
2023/01/31 00:54:14;;;;;;;15.25;2.80;;;;;;;;;;4971218;28;20030;-72
2023/01/31 00:56:41;;;;;;;10.18;2.00;;;;;;;;;;4972622;28;20030;-72
2023/01/31 00:59:07;;;;;;;12.40;2.92;;;;;;;;;;4972256;28;20058;-72
2023/01/31 01:01:34;;;;;;;16.13;2.83;;;;;;;;;;4973402;28;20089;-73
2023/01/31 01:04:01;;;;;;;11.32;1.77;;;;;;;;;;4972364;28;20102;-73
2023/01/31 01:06:30;;;;;;;8.82;2.80;;;;;;;;;;4974028;28;20031;-73
2023/01/31 01:09:06;;;;;;;8.30;1.80;;;;;;;;;;4972871;28;20027;-73
2023/01/31 01:11:36;;;;;;;9.68;1.52;;;;;;;;;;4973789;28;20147;-73
2023/01/31 01:14:03;;;;;;;5.18;2.08;;;;;;;;;;4972226;28;20033;-74
2023/01/31 01:16:33;;;;;;;7.53;1.40;;;;;;;;;;4972829;28;20027;-73
2023/01/31 01:19:01;;;;;;;12.40;1.38;;;;;;;;;;4971802;28;20019;-70
2023/01/31 01:21:28;;;;;;;10.68;1.90;;;;;;;;;;4971118;28;20085;-71
2023/01/31 01:23:59;;;;;;;8.02;2.13;;;;;;;;;;4972177;28;20097;-72
2023/01/31 01:26:25;;;;;;;;;;;;;;;;;;4961899;28;20066;-71
2023/01/31 01:28:51;;;;;;;25.05;3.63;;;;;;;;;;4951946;28;19957;-71
2023/01/31 01:31:18;;;;;;;8.95;1.85;;;;;;;;;;4952883;29;20042;-71
2023/01/31 01:33:45;;;;;;;7.63;2.55;;;;;;;;;;4953331;28;20028;-72
2023/01/31 01:36:12;;;;;;;13.43;2.20;;;;;;;;;;4951577;28;20454;-72
2023/01/31 01:38:39;;;;;;;13.27;2.38;;;;;;;;;;4950571;29;20031;-72
2023/01/31 01:41:06;;;;;;;10.82;1.95;;;;;;;;;;4953152;28;20015;-71
2023/01/31 01:43:47;;;;;;;15.93;3.28;;;;;;;;;;4964810;28;20122;-71
2023/01/31 01:46:15;;;;;;;14.73;2.60;;;;;;;;;;4972275;28;20058;-72
2023/01/31 01:48:42;;;;;;;19.25;2.95;;;;;;;;;;4971350;28;20143;-71
2023/01/31 01:51:09;;;;;;;13.02;3.33;;;;;;;;;;4971911;28;20109;-71
2023/01/31 01:53:38;;;;;;;14.18;3.08;;;;;;;;;;4971976;28;20026;-71
2023/01/31 01:56:08;;;;;;;24.95;3.50;;;;;;;;;;4970669;28;20457;-71
2023/01/31 01:59:00;;;;;;;12.45;2.67;;;;;;;;;;4966795;28;20110;-72
2023/01/31 02:01:28;;;;;;;10.80;2.25;;;;;;;;;;4970681;28;20043;-71
2023/01/31 02:03:54;;;;;;;15.23;2.40;;;;;;;;;;4974230;28;20494;-72
2023/01/31 02:06:20;;;;;;;16.88;2.58;;;;;;;;;;4972644;28;20400;-72
2023/01/31 02:08:47;;;;;;;19.23;3.55;;;;;;;;;;4971974;28;20114;-72
2023/01/31 02:11:16;;;;;;;20.58;3.28;;;;;;;;;;4978953;28;20077;-72
2023/01/31 02:13:43;;;;;;;12.93;2.40;;;;;;;;;;4979400;28;20057;-72
2023/01/31 02:16:09;;;;;;;17.70;3.13;;;;;;;;;;4974910;28;20027;-73
2023/01/31 02:18:35;;;;;;;15.00;3.47;;;;;;;;;;4974767;28;20019;-73
2023/01/31 02:21:20;;;;;;;15.07;3.38;;;;;;;;;;4975475;28;20049;-71
2023/01/31 02:24:02;;;;;;;21.38;3.15;;;;;;;;;;4975560;28;20025;-71
2023/01/31 02:26:46;;;;;;;21.63;3.47;;;;;;;;;;4964345;28;20095;-71
2023/01/31 02:29:13;;;;;;;14.52;3.78;;;;;;;;;;4953961;28;20087;-71
2023/01/31 02:31:48;;;;;;;19.98;3.38;;;;;;;;;;4956504;29;20027;-72
2023/01/31 02:34:17;;;;;;;19.25;3.70;;;;;;;;;;4956292;28;20126;-73
2023/01/31 02:36:46;;;;;;;18.33;3.30;;;;;;;;;;4955875;29;20041;-71
2023/01/31 02:39:19;;;;;;;21.55;4.00;;;;;;;;;;4955121;28;20455;-71
2023/01/31 02:41:48;;;;;;;18.08;3.10;;;;;;;;;;4955950;28;20023;-72
2023/01/31 02:47:35;;;;;;;20.55;3.75;;;;;;;;;;4974666;28;20041;-70
2023/01/31 02:50:10;;;;;;;17.45;3.40;;;;;;;;;;4974854;28;20031;-72
2023/01/31 02:52:45;;;;;;;16.75;4.78;;;;;;;;;;4975255;28;20054;-72
2023/01/31 02:58:17;;;;;;;15.55;3.88;;;;;;;;;;4974475;28;20054;-72
2023/01/31 03:00:44;;;;;;;14.77;3.05;;;;;;;;;;4975251;28;20019;-71
2023/01/31 03:03:30;;;;;;;20.70;4.05;;;;;;;;;;4974990;28;20038;-72
2023/01/31 03:06:11;;;;;;;19.00;4.00;;;;;;;;;;4974962;28;20389;-73
2023/01/31 03:08:39;;;;;;;11.80;2.53;;;;;;;;;;4973833;28;20023;-73
2023/01/31 03:11:07;;;;;;;13.15;3.25;;;;;;;;;;4974797;28;20026;-73
2023/01/31 03:13:36;;;;;;;14.38;3.30;;;;;;;;;;4974305;28;20027;-73
2023/01/31 03:19:12;;;;;;;13.90;2.63;;;;;;;;;;4951921;29;20107;-73
2023/01/31 03:22:04;;;;;;;20.33;2.97;;;;;;;;;;4970656;28;20071;-72
2023/01/31 03:24:31;;;;;;;13.98;4.10;;;;;;;;;;4972806;28;20063;-73
2023/01/31 03:26:58;;;;;;;16.20;2.85;;;;;;;;;;4974313;28;20118;-70
2023/01/31 03:29:24;;;;;;;16.10;3.45;;;;;;;;;;4973990;28;20027;-72
2023/01/31 03:31:56;;;;;;;14.88;2.75;;;;;;;;;;4974597;28;20031;-71
2023/01/31 03:34:22;;;;;;;25.60;3.83;;;;;;;;;;4974314;28;20023;-71
2023/01/31 03:36:53;;;;;;;17.67;4.07;;;;;;;;;;4974090;28;20035;-73
2023/01/31 03:39:43;;;;;;;18.05;3.83;;;;;;;;;;4973347;28;20045;-71
2023/01/31 03:42:24;;;;;;;20.02;3.35;;;;;;;;;;4968013;28;20415;-73
2023/01/31 03:44:50;;;;;;;;;;;;;;;;;;4955212;28;20020;-72
2023/01/31 03:47:16;;;;;;;17.13;2.85;;;;;;;;;;4952624;29;19910;-73
2023/01/31 03:49:44;;;;;;;20.80;4.32;;;;;;;;;;4954556;29;20505;-72
2023/01/31 03:52:12;;;;;;;13.75;3.05;;;;;;;;;;4954278;29;20019;-71
2023/01/31 03:54:44;;;;;;;14.95;3.25;;;;;;;;;;4954508;28;20312;-72
2023/01/31 03:57:16;;;;;;;13.02;2.33;;;;;;;;;;4953898;29;20027;-71
2023/01/31 03:59:43;;;;;;;14.52;2.85;;;;;;;;;;4953271;29;20023;-72
2023/01/31 04:02:11;;;;;;;14.13;3.08;;;;;;;;;;4954957;29;20027;-71
2023/01/31 04:04:42;;;;;;;11.93;3.25;;;;;;;;;;4953446;29;20046;-72
2023/01/31 04:07:08;;;;;;;12.32;4.28;;;;;;;;;;4954532;28;20020;-71
2023/01/31 04:09:36;;;;;;;12.90;2.58;;;;;;;;;;4954647;29;20027;-72
2023/01/31 04:12:02;;;;;;;11.35;2.65;;;;;;;;;;4954600;28;20035;-71
2023/01/31 04:14:29;;;;;;;10.07;2.53;;;;;;;;;;4969629;28;20059;-71
2023/01/31 04:16:55;;;;;;;16.20;4.40;;;;;;;;;;4973346;28;20037;-72
2023/01/31 04:19:21;;;;;;;14.70;3.30;;;;;;;;;;4971569;28;20027;-72
2023/01/31 04:21:47;;;;;;;17.02;3.72;;;;;;;;;;4971998;28;20054;-71
2023/01/31 04:24:13;;;;;;;18.00;3.63;;;;;;;;;;4972699;28;20529;-71
2023/01/31 04:26:39;;;;;;;13.95;3.08;;;;;;;;;;4973106;28;20042;-72
2023/01/31 04:29:05;;;;;;;15.23;3.30;;;;;;;;;;4972783;28;20039;-72
2023/01/31 04:31:31;;;;;;;15.02;2.88;;;;;;;;;;4973379;28;20303;-72
2023/01/31 04:33:58;;;;;;;13.10;3.22;;;;;;;;;;4963754;28;20027;-72
2023/01/31 04:36:25;;;;;;;15.27;2.70;;;;;;;;;;4967922;28;20086;-72
2023/01/31 04:38:51;;;;;;;11.90;3.20;;;;;;;;;;4972112;28;20055;-72
2023/01/31 04:41:17;;;;;;;23.67;3.80;;;;;;;;;;4972989;28;20065;-72
2023/01/31 04:43:43;;;;;;;12.75;2.42;;;;;;;;;;4954676;28;20529;-72
2023/01/31 04:46:09;;;;;;;23.55;6.43;;;;;;;;;;4953608;29;20046;-72
2023/01/31 04:48:35;;;;;;;15.52;2.95;;;;;;;;;;4952753;28;20492;-72
2023/01/31 04:51:01;;;;;;;10.07;2.90;;;;;;;;;;4961987;28;20038;-72
2023/01/31 04:53:27;;;;;;;17.90;3.85;;;;;;;;;;4972644;28;20037;-72
2023/01/31 04:55:54;;;;;;;11.07;2.35;;;;;;;;;;4971537;28;20031;-73
2023/01/31 04:58:20;;;;;;;18.63;3.72;;;;;;;;;;4971881;28;20042;-74
2023/01/31 05:00:46;;;;;;;13.38;3.45;;;;;;;;;;4973112;28;20572;-73
2023/01/31 05:03:12;;;;;;;19.67;3.15;;;;;;;;;;4972493;28;20320;-72
2023/01/31 05:05:38;;;;;;;15.43;2.45;;;;;;;;;;4972674;28;20103;-73
2023/01/31 05:08:05;;;;;;;11.88;2.70;;;;;;;;;;4963008;28;20441;-72
2023/01/31 05:10:31;;;;;;;11.18;3.88;;;;;;;;;;4953333;28;20478;-73
2023/01/31 05:12:57;;;;;;;13.85;4.68;;;;;;;;;;4953290;28;20030;-73
2023/01/31 05:15:23;;;;;;;17.42;3.67;;;;;;;;;;4953236;28;20027;-73
2023/01/31 05:17:53;;;;;;;12.35;2.95;;;;;;;;;;4952095;28;20039;-73
2023/01/31 05:20:20;;;;;;;16.40;2.38;;;;;;;;;;4952912;28;20027;-72
2023/01/31 05:22:49;;;;;;;13.43;3.10;;;;;;;;;;4953026;28;20410;-73
2023/01/31 05:25:15;;;;;;;15.07;3.20;;;;;;;;;;4954253;28;20023;-72
2023/01/31 05:27:43;;;;;;;17.73;2.95;;;;;;;;;;4971677;28;20042;-73
2023/01/31 05:30:10;;;;;;;20.10;2.97;;;;;;;;;;4972057;28;20386;-72
2023/01/31 05:32:36;;;;;;;13.77;2.63;;;;;;;;;;4972435;28;20052;-73
2023/01/31 05:35:02;;;;;;;23.90;3.55;;;;;;;;;;4971844;28;20392;-73
2023/01/31 05:37:28;;;;;;;17.42;3.17;;;;;;;;;;4971535;28;20034;-73
2023/01/31 05:39:54;;;;;;;20.10;3.85;;;;;;;;;;4972214;28;20050;-73
2023/01/31 05:42:20;;;;;;;21.10;4.32;;;;;;;;;;4961715;28;20050;-71
2023/01/31 05:44:46;;;;;;;16.77;3.67;;;;;;;;;;4951566;28;20486;-74
2023/01/31 05:47:12;;;;;;;17.95;3.25;;;;;;;;;;4952569;29;20035;-73
2023/01/31 05:49:38;;;;;;;17.98;3.90;;;;;;;;;;4952772;28;20363;-73
2023/01/31 05:52:04;;;;;;;10.48;2.83;;;;;;;;;;4951669;28;20126;-74
2023/01/31 05:54:30;;;;;;;17.77;2.80;;;;;;;;;;4952709;28;20575;-73
2023/01/31 05:56:56;;;;;;;15.18;3.83;;;;;;;;;;4951149;28;20142;-72
2023/01/31 05:59:22;;;;;;;12.23;4.00;;;;;;;;;;4952162;28;20111;-72
2023/01/31 06:01:48;;;;;;;14.02;3.80;;;;;;;;;;4952749;28;20387;-72
2023/01/31 06:04:14;;;;;;;17.58;3.47;;;;;;;;;;4952717;28;20030;-73
2023/01/31 06:06:41;;;;;;;14.15;3.97;;;;;;;;;;4952569;28;20063;-73
2023/01/31 06:09:08;;;;;;;17.80;3.92;;;;;;;;;;4951918;28;20031;-72
2023/01/31 06:11:34;;;;;;;12.30;3.15;;;;;;;;;;4952716;28;20028;-73
2023/01/31 06:14:00;;;;;;;15.10;3.53;;;;;;;;;;4971180;28;20029;-72
2023/01/31 06:16:26;;;;;;;17.58;3.30;;;;;;;;;;4970411;28;20027;-73
2023/01/31 06:18:52;;;;;;;11.43;3.20;;;;;;;;;;4969743;28;20026;-73
2023/01/31 06:21:18;;;;;;;15.65;4.32;;;;;;;;;;4971875;28;20033;-72
2023/01/31 06:23:45;;;;;;;17.15;3.35;;;;;;;;;;4972005;28;20023;-72
2023/01/31 06:26:11;;;;;;;9.63;2.92;;;;;;;;;;4971648;28;20034;-73
2023/01/31 06:28:37;;;;;;;10.30;2.88;;;;;;;;;;4993341;23;20079;-74
2023/01/31 06:31:10;;;;;;;11.63;3.38;;;;;;;;;;4971936;28;20027;-73
2023/01/31 06:33:36;;;;;;;12.43;2.92;;;;;;;;;;4970553;28;20050;-73
2023/01/31 06:36:03;;;;;;;16.45;4.80;;;;;;;;;;4972030;28;20512;-74
2023/01/31 06:38:29;;;;;;;11.93;2.78;;;;;;;;;;4970781;28;20481;-74
2023/01/31 06:40:55;;;;;;;10.20;2.42;;;;;;;;;;4971537;28;20548;-74
2023/01/31 06:43:21;;;;;;;15.50;3.65;;;;;;;;;;4971609;28;20548;-74
2023/01/31 06:45:50;;;;;;;11.48;3.15;;;;;;;;;;4970696;28;20130;-74
2023/01/31 06:48:16;;;;;;;10.25;2.88;;;;;;;;;;4973613;28;20031;-75
2023/01/31 06:50:43;;;;;;;17.35;3.78;;;;;;;;;;4975228;28;20088;-74
2023/01/31 06:53:09;;;;;;;14.45;3.05;;;;;;;;;;4975207;28;20027;-73
2023/01/31 06:55:35;;;;;;;21.05;3.05;;;;;;;;;;4974200;28;20027;-74
2023/01/31 06:58:01;;;;;;;18.15;3.53;;;;;;;;;;4974644;28;20485;-73
2023/01/31 07:00:28;;;;;;;18.45;2.70;;;;;;;;;;4973507;28;20027;-73
2023/01/31 07:02:55;;;;;;;14.95;3.60;;;;;;;;;;4974886;28;20081;-73
2023/01/31 07:05:21;;;;;;;12.13;3.45;;;;;;;;;;4974612;28;20035;-74
2023/01/31 07:07:48;;;;;;;11.43;2.30;;;;;;;;;;4973746;28;20027;-73
2023/01/31 07:10:14;;;;;;;13.35;2.67;;;;;;;;;;4974813;28;20086;-74
2023/01/31 07:12:40;;;;;;;12.57;2.85;;;;;;;;;;4973611;28;20481;-74
2023/01/31 07:15:07;;;;;;;17.67;3.63;;;;;;;;;;4974687;28;20090;-73
2023/01/31 07:17:33;;;;;;;17.50;3.28;;;;;;;;;;4973781;28;20027;-75
2023/01/31 07:19:59;;;;;;;11.25;2.53;;;;;;;;;;4974786;28;20477;-72
2023/01/31 07:22:25;;;;;;;12.25;2.55;;;;;;;;;;4974729;28;20027;-73
2023/01/31 07:24:51;;;;;;;9.38;2.67;;;;;;;;;;4974643;28;20051;-73
2023/01/31 07:27:17;;;;;;;11.93;2.80;;;;;;;;;;4982902;28;20520;-73
2023/01/31 07:29:43;;;;;;;11.63;2.55;;;;;;;;;;4987278;28;20042;-74
2023/01/31 07:32:09;;;;;;;11.05;2.47;;;;;;;;;;4985775;28;20114;-73
2023/01/31 07:34:35;;;;;;;16.17;2.78;;;;;;;;;;4979688;28;20023;-72
2023/01/31 07:37:02;;;;;;;11.85;2.28;;;;;;;;;;4973878;28;20110;-72
2023/01/31 07:39:28;;;;;;;8.90;2.38;;;;;;;;;;4974203;28;20494;-73
2023/01/31 07:41:54;;;;;;;15.57;3.00;;;;;;;;;;4974466;28;20027;-77
2023/01/31 07:44:20;;;;;;;11.20;2.08;;;;;;;;;;4974516;28;20022;-72
2023/01/31 07:46:47;;;;;;;18.13;3.08;;;;;;;;;;4974705;28;20034;-72
2023/01/31 07:49:13;;;;;;;13.10;2.13;;;;;;;;;;4971869;28;20026;-74
2023/01/31 07:51:39;;;;;;;9.80;2.58;;;;;;;;;;4974149;28;20041;-73
2023/01/31 07:54:10;;;;;;;13.43;2.67;;;;;;;;;;4974199;28;20031;-73
2023/01/31 07:56:36;;;;;;;11.35;2.40;;;;;;;;;;4972578;28;20035;-73
2023/01/31 07:59:02;;;;;;;15.77;3.42;;;;;;;;;;4972289;28;20037;-73
2023/01/31 08:04:14;;;;;;;14.50;2.55;;;;;;;;;;4974373;28;20046;-75
2023/01/31 08:06:40;;;;;;;14.63;3.03;;;;;;;;;;4973794;28;20501;-74
2023/01/31 08:09:06;;;;;;;16.67;2.90;;;;;;;;;;4973464;28;20058;-72
2023/01/31 08:11:32;;;;;;;9.15;2.45;;;;;;;;;;4975196;28;20130;-74
2023/01/31 08:13:58;;;;;;;17.77;2.60;;;;;;;;;;4974587;28;20106;-74
2023/01/31 08:16:24;;;;;;;10.43;2.30;;;;;;;;;;4973225;28;20122;-74
2023/01/31 08:18:51;;;;;;;17.38;3.03;;;;;;;;;;4972916;28;20031;-73
2023/01/31 08:21:17;;;;;;;6.75;1.60;;;;;;;;;;4973363;28;20556;-73
2023/01/31 08:23:43;;;;;;;12.43;2.40;;;;;;;;;;4973489;28;20022;-73
2023/01/31 08:26:15;;;;;;;14.35;2.35;;;;;;;;;;4973248;28;20405;-73
2023/01/31 08:28:41;;;;;;;10.02;2.53;;;;;;;;;;4972713;28;20023;-73
2023/01/31 08:31:07;;;;;;;11.43;2.30;;;;;;;;;;4971863;28;20055;-73
2023/01/31 08:33:33;;;;;;;12.38;2.88;;;;;;;;;;4973326;28;20043;-73
2023/01/31 08:36:09;;;;;;;13.18;2.72;;;;;;;;;;4973484;28;20155;-73
2023/01/31 08:38:35;;;;;;;13.35;2.85;;;;;;;;;;4972419;28;20050;-73
2023/01/31 08:41:01;;;;;;;13.88;3.05;;;;;;;;;;4973124;28;20473;-73
2023/01/31 08:43:27;;;;;;;17.58;3.00;;;;;;;;;;4972996;28;20029;-73
2023/01/31 08:45:53;;;;;;;15.50;2.72;;;;;;;;;;4972827;28;20418;-74
2023/01/31 08:48:19;;;;;;;14.57;3.22;;;;;;;;;;4972488;28;20042;-73
2023/01/31 08:50:45;;;;;;;11.45;2.78;;;;;;;;;;4973047;28;20441;-73
2023/01/31 08:53:11;;;;;;;8.40;1.83;;;;;;;;;;4973531;28;20077;-74
2023/01/31 08:55:37;;;;;;;12.23;2.60;;;;;;;;;;4972902;28;20037;-75
2023/01/31 08:58:03;;;;;;;14.10;2.95;;;;;;;;;;4971842;28;20026;-75
2023/01/31 09:00:29;;;;;;;13.95;2.47;;;;;;;;;;4971261;28;20027;-74
2023/01/31 09:02:57;;;;;;;13.50;2.08;;;;;;;;;;4972686;28;20500;-74
2023/01/31 09:05:24;;;;;;;13.77;2.90;;;;;;;;;;4972613;28;20030;-74
2023/01/31 09:07:50;;;;;;;16.10;2.70;;;;;;;;;;4970791;28;20081;-73
2023/01/31 09:10:19;;;;;;;14.05;2.25;;;;;;;;;;4972161;28;20494;-73
2023/01/31 09:12:45;;;;;;;11.43;2.33;;;;;;;;;;4972561;28;20026;-75
2023/01/31 09:15:12;;;;;;;10.55;2.40;;;;;;;;;;4972791;28;20033;-72
2023/01/31 09:17:39;;;;;;;10.60;2.47;;;;;;;;;;4972205;28;20089;-76
2023/01/31 09:20:06;;;;;;;10.77;1.92;;;;;;;;;;4972787;28;20034;-73
2023/01/31 09:22:33;;;;;;;10.20;2.38;;;;;;;;;;4971116;28;20030;-71
2023/01/31 09:24:59;;;;;;;13.18;3.10;;;;;;;;;;4972333;28;20397;-72
2023/01/31 09:27:26;;;;;;;11.15;2.20;;;;;;;;;;4971210;28;20443;-72
2023/01/31 09:29:52;;;;;;;9.77;2.00;;;;;;;;;;4972254;28;20043;-72
2023/01/31 09:32:20;;;;;;;13.10;2.28;;;;;;;;;;4972247;28;20037;-72
2023/01/31 09:34:47;;;;;;;11.65;2.40;;;;;;;;;;4972373;28;20022;-73
2023/01/31 09:37:14;;;;;;;10.82;2.25;;;;;;;;;;4970529;28;20022;-73
2023/01/31 09:39:39;;;;;;;14.70;2.83;;;;;;;;;;4971715;28;20023;-74
2023/01/31 09:42:21;;;;;;;9.02;2.03;;;;;;;;;;4971973;28;20057;-74
2023/01/31 09:44:55;;;;;;;10.10;1.92;;;;;;;;;;4972188;28;20151;-72
2023/01/31 09:47:47;;;;;;;12.82;2.33;;;;;;;;;;4971819;28;20101;-73
2023/01/31 09:50:21;;;;;;;12.55;2.53;;;;;;;;;;4965986;28;20039;-73
2023/01/31 09:52:48;;;;;;;12.57;2.30;;;;;;;;;;4972066;28;20062;-73
2023/01/31 09:55:18;;;;;;;10.25;2.92;;;;;;;;;;4971722;28;20133;-74
2023/01/31 09:58:04;;;;;;;14.20;2.85;;;;;;;;;;4971163;28;20023;-73
2023/01/31 10:00:30;;;;;;;9.77;2.20;;;;;;;;;;4971858;28;20041;-72
2023/01/31 10:03:11;;;;;;;10.63;2.03;;;;;;;;;;4971975;28;20061;-72
2023/01/31 10:05:43;;;;;;;6.55;2.10;;;;;;;;;;4970740;28;20038;-72
2023/01/31 10:08:22;;;;;;;10.70;2.88;;;;;;;;;;4970916;28;20030;-73
2023/01/31 10:10:51;;;;;;;11.38;2.30;;;;;;;;;;4971512;28;20485;-72
2023/01/31 10:13:20;;;;;;;9.07;2.38;;;;;;;;;;4969834;28;20138;-72
2023/01/31 10:15:55;;;;;;;11.90;2.70;;;;;;;;;;4969977;28;20022;-73
2023/01/31 10:18:30;;;;;;;14.65;2.95;;;;;;;;;;4967850;28;20027;-72
2023/01/31 10:20:59;;;;;;;7.63;2.08;;;;;;;;;;4969921;28;20023;-73
2023/01/31 10:23:31;;;;;;;9.93;2.05;;;;;;;;;;4973651;28;20015;-71
2023/01/31 10:26:01;;;;;;;10.27;2.13;;;;;;;;;;4974299;28;20377;-72
2023/01/31 10:28:46;;;;;;;9.15;2.28;;;;;;;;;;4974046;28;20122;-72
2023/01/31 10:31:12;;;;;;;13.15;3.40;;;;;;;;;;4973826;28;20035;-72
2023/01/31 10:33:38;;;;;;;14.10;2.90;;;;;;;;;;4972554;28;20503;-71
2023/01/31 10:36:09;;;;;;;10.68;2.45;;;;;;;;;;4973967;28;20027;-73
2023/01/31 10:38:40;;;;;;;7.50;1.98;;;;;;;;;;4971913;28;20114;-72
2023/01/31 10:41:11;;;;;;;6.07;2.03;;;;;;;;;;4973978;28;20040;-72
2023/01/31 10:43:39;;;;;;;8.95;2.17;;;;;;;;;;4975848;28;20030;-73
2023/01/31 10:46:09;;;;;;;12.80;2.83;;;;;;;;;;4975154;28;20122;-72
2023/01/31 10:48:35;;;;;;;12.30;2.93;;;;;;;;;;4974285;28;20103;-73
2023/01/31 10:51:20;;;;;;;10.40;2.42;;;;;;;;;;4975238;28;20035;-73
2023/01/31 10:53:57;;;;;;;13.38;2.53;;;;;;;;;;4975436;28;20397;-72
2023/01/31 10:56:43;;;;;;;8.23;2.05;;;;;;;;;;4973255;28;20031;-73
2023/01/31 10:59:17;;;;;;;13.25;2.40;;;;;;;;;;4974398;28;20035;-73
2023/01/31 11:01:42;;;;;;;9.48;2.70;;;;;;;;;;4975324;28;20109;-73
2023/01/31 11:04:21;;;;;;;8.60;1.98;;;;;;;;;;4974762;28;20039;-73
2023/01/31 11:06:47;;;;;;;9.68;1.88;;;;;;;;;;4973443;28;20030;-72
2023/01/31 11:09:13;;;;;;;8.93;2.10;;;;;;;;;;4973955;28;20496;-73
2023/01/31 11:11:52;;;;;;;9.50;2.15;;;;;;;;;;4974744;28;20072;-73
2023/01/31 11:14:18;;;;;;;9.13;2.13;;;;;;;;;;4974637;28;20082;-71
2023/01/31 11:16:45;;;;;;;9.55;2.22;;;;;;;;;;4974420;28;20027;-73
2023/01/31 11:19:27;;;;;;;9.90;2.42;;;;;;;;;;4974177;28;20027;-73
2023/01/31 11:21:54;;;;;;;9.20;1.65;;;;;;;;;;4974531;28;20122;-73
2023/01/31 11:24:21;;;;;;;9.18;2.13;;;;;;;;;;4975192;28;20157;-73
2023/01/31 11:26:52;;;;;;;8.90;2.22;;;;;;;;;;4974591;28;20118;-73
2023/01/31 11:29:25;;;;;;;7.57;2.08;;;;;;;;;;4974306;28;20050;-72
2023/01/31 11:31:51;;;;;;;10.05;2.83;;;;;;;;;;4974559;28;20520;-74
2023/01/31 11:34:22;;;;;;;8.35;2.30;;;;;;;;;;4974821;28;20037;-72
2023/01/31 11:36:48;;;;;;;7.10;1.75;;;;;;;;;;4974837;28;20037;-74
2023/01/31 11:39:31;;;;;;;11.68;3.00;;;;;;;;;;4974751;28;20054;-72
2023/01/31 11:41:57;;;;;;;12.55;2.63;;;;;;;;;;4974878;28;20394;-73
2023/01/31 11:44:24;;;;;;;15.60;2.90;;;;;;;;;;4974472;28;20038;-73
2023/01/31 11:46:55;;;;;;;12.75;2.90;;;;;;;;;;4974437;28;20035;-73
2023/01/31 11:49:33;;;;;;;7.90;2.25;;;;;;;;;;4974284;28;20034;-75
2023/01/31 11:52:00;;;;;;;6.35;2.35;;;;;;;;;;4975119;28;20106;-73
2023/01/31 11:54:28;;;;;;;10.18;2.53;;;;;;;;;;4974131;28;20030;-73
2023/01/31 11:56:55;;;;;;;12.05;2.80;;;;;;;;;;4974040;28;20027;-73
2023/01/31 11:59:22;;;;;;;5.00;1.63;;;;;;;;;;4973216;28;20065;-73
2023/01/31 12:01:50;;;;;;;17.33;3.42;;;;;;;;;;4974184;28;20031;-73
2023/01/31 12:04:19;;;;;;;6.25;1.45;;;;;;;;;;4973672;28;20026;-74
2023/01/31 12:06:56;;;;;;;15.63;2.78;;;;;;;;;;4973818;28;20027;-74
2023/01/31 12:09:24;;;;;;;10.82;2.67;;;;;;;;;;4972507;28;20084;-71
2023/01/31 12:11:52;;;;;;;17.42;3.38;;;;;;;;;;4971289;28;20027;-73
2023/01/31 12:14:18;;;;;;;11.38;2.90;;;;;;;;;;4972558;28;20045;-75
2023/01/31 12:16:46;;;;;;;10.98;3.03;;;;;;;;;;4972446;28;20105;-74
2023/01/31 12:19:12;;;;;;;13.45;3.00;;;;;;;;;;4971682;28;20516;-73
2023/01/31 12:21:56;;;;;;;9.68;2.75;;;;;;;;;;4973654;28;20026;-72
2023/01/31 12:24:40;;;;;;;12.13;2.58;;;;;;;;;;4974120;28;20062;-73
2023/01/31 12:27:16;;;;;;;12.55;2.88;;;;;;;;;;4973120;28;20379;-70
2023/01/31 12:29:45;;;;;;;12.55;2.85;;;;;;;;;;4974500;28;20416;-73
2023/01/31 12:32:20;;;;;;;8.85;2.50;;;;;;;;;;4973200;28;20055;-73
2023/01/31 12:35:25;;;;;;;9.20;2.90;;;;;;;;;;4973164;28;20396;-73
2023/01/31 12:38:02;;;;;;;16.08;3.17;;;;;;;;;;4912546;29;20118;-72
2023/01/31 12:40:33;;;;;;;11.27;3.20;;;;;;;;;;4913547;29;20064;-73
2023/01/31 12:43:02;;;;;;;10.80;3.03;;;;;;;;;;4955983;28;20062;-72
2023/01/31 12:45:28;;;;;;;11.82;2.75;;;;;;;;;;4984831;28;20030;-74
2023/01/31 12:47:57;;;;;;;8.18;3.08;;;;;;;;;;4978538;28;20057;-75
2023/01/31 12:50:23;;;;;;;14.48;3.58;;;;;;;;;;4975897;28;20478;-74
2023/01/31 12:53:18;;;;;;;13.93;3.72;;;;;;;;;;4972909;28;20128;-73
2023/01/31 12:55:51;;;;;;;9.90;3.17;;;;;;;;;;4958139;28;20509;-73
2023/01/31 12:58:26;;;;;;;13.25;4.20;;;;;;;;;;4970121;28;20030;-74
2023/01/31 13:01:02;;;;;;;11.65;3.13;;;;;;;;;;4971313;28;20576;-74
2023/01/31 13:03:28;;;;;;;15.20;3.70;;;;;;;;;;4971138;28;20516;-71
2023/01/31 13:05:58;;;;;;;11.70;3.25;;;;;;;;;;4971148;28;20019;-73
2023/01/31 13:08:25;;;;;;;12.55;3.58;;;;;;;;;;4970608;28;20474;-72
2023/01/31 13:10:54;;;;;;;9.18;2.75;;;;;;;;;;4973056;28;20030;-73
2023/01/31 13:13:33;;;;;;;11.50;3.17;;;;;;;;;;4972743;28;20039;-72
2023/01/31 13:16:17;;;;;;;12.98;3.75;;;;;;;;;;4972499;28;20098;-72
2023/01/31 13:18:46;;;;;;;18.13;3.92;;;;;;;;;;4971671;28;20041;-72
2023/01/31 13:21:14;;;;;;;16.30;4.00;;;;;;;;;;4972597;28;20438;-73
2023/01/31 13:23:42;;;;;;;12.23;3.28;;;;;;;;;;4972632;28;20478;-71
2023/01/31 13:26:10;;;;;;;13.30;3.85;;;;;;;;;;4972517;28;20027;-72
2023/01/31 13:28:42;;;;;;;15.13;3.85;;;;;;;;;;4971742;28;20137;-73
2023/01/31 13:31:11;;;;;;;10.65;3.33;;;;;;;;;;4971459;28;20038;-74
2023/01/31 13:34:03;;;;;;;10.13;3.58;;;;;;;;;;4971183;28;20482;-73
2023/01/31 13:36:50;;;;;;;12.30;3.72;;;;;;;;;;4942926;28;20035;-73
2023/01/31 13:39:35;;;;;;;13.65;3.35;;;;;;;;;;4970396;28;20026;-73
2023/01/31 13:42:01;;;;;;;11.98;4.22;;;;;;;;;;4972418;28;20469;-73
2023/01/31 13:44:27;;;;;;;10.50;3.60;;;;;;;;;;4972834;28;20019;-74
2023/01/31 13:46:56;;;;;;;9.80;3.53;;;;;;;;;;4973408;28;20035;-74
2023/01/31 13:49:51;;;;;;;16.55;4.18;;;;;;;;;;4971865;28;20034;-72
2023/01/31 13:52:27;;;;;;;13.00;3.70;;;;;;;;;;4959832;28;20489;-72
2023/01/31 13:54:57;;;;;;;14.50;3.75;;;;;;;;;;4972515;28;20115;-70
2023/01/31 13:57:28;;;;;;;10.88;3.72;;;;;;;;;;4974604;28;20023;-72
2023/01/31 13:59:54;;;;;;;;;;;;;;;;;;4977308;28;20098;-72
2023/01/31 14:02:20;;;;;;;12.63;4.25;;;;;;;;;;4974926;28;19905;-73
2023/01/31 14:04:46;;;;;;;12.63;3.40;;;;;;;;;;4976374;28;20051;-72
2023/01/31 14:07:12;;;;;;;11.43;4.38;;;;;;;;;;4975627;28;20292;-73
2023/01/31 14:09:44;;;;;;;13.05;4.70;;;;;;;;;;4976090;28;20110;-72
2023/01/31 14:12:16;;;;;;;15.25;4.05;;;;;;;;;;4975921;28;20382;-72
2023/01/31 14:14:47;;;;;;;12.68;3.92;;;;;;;;;;4975990;28;20442;-72
2023/01/31 14:17:15;;;;;;;11.60;3.60;;;;;;;;;;4975450;28;20405;-73
2023/01/31 14:19:45;;;;;;;12.85;3.95;;;;;;;;;;4974186;28;20035;-72
2023/01/31 14:22:21;;;;;;;13.35;3.75;;;;;;;;;;4975816;28;20023;-73
2023/01/31 14:24:55;;;;;;;13.80;4.70;;;;;;;;;;4975462;28;20030;-74
2023/01/31 14:27:41;;;;;;;8.77;3.15;;;;;;;;;;4974918;28;20031;-74
2023/01/31 14:30:18;;;;;;;13.10;4.03;;;;;;;;;;4975437;28;20034;-73
2023/01/31 14:32:56;;;;;;;15.75;4.40;;;;;;;;;;4975678;28;20106;-71
2023/01/31 14:35:41;;;;;;;15.88;4.57;;;;;;;;;;4975536;28;20050;-72
2023/01/31 14:38:07;;;;;;;11.88;3.80;;;;;;;;;;4974816;28;20129;-72
2023/01/31 14:40:38;;;;;;;11.75;4.18;;;;;;;;;;4975608;28;20497;-73
2023/01/31 14:43:04;;;;;;;11.95;3.55;;;;;;;;;;4975761;28;20122;-72
2023/01/31 14:45:29;;;;;;;11.63;3.80;;;;;;;;;;4975420;28;20023;-71
2023/01/31 14:47:55;;;;;;;7.80;3.55;;;;;;;;;;4975016;28;20027;-74
2023/01/31 14:50:21;;;;;;;13.23;4.05;;;;;;;;;;4976681;28;20038;-73
2023/01/31 14:53:03;;;;;;;14.82;4.32;;;;;;;;;;4975903;28;20077;-72
2023/01/31 14:55:54;;;;;;;11.07;3.88;;;;;;;;;;4977197;28;20114;-71
2023/01/31 14:58:22;;;;;;;12.90;3.83;;;;;;;;;;4975373;28;20045;-72